Time;durP1;ratioP1;P1;durP2;ratioP2;P2;SDS_P1;SDS_P2;PMS_P1;PMS_P2;Temp;Humidity;BMP_temperature;BMP_pressure;BME280_temperature;BME280_humidity;BME280_pressure;Samples;Min_cycle;Max_cycle;Signal;HPM_P1;HPM_P2
2022/03/25 00:00:45;;;;;;;43.07;32.17;;;;;;;;;;4997866;28;20192;-53
2022/03/25 00:03:12;;;;;;;43.40;31.43;;;;;;;;;;4997334;28;20193;-53
2022/03/25 00:05:38;;;;;;;42.57;31.87;;;;;;;;;;5008221;28;20228;-52
2022/03/25 00:08:05;;;;;;;45.20;30.97;;;;;;;;;;5000834;28;20209;-53
2022/03/25 00:10:31;;;;;;;39.20;30.53;;;;;;;;;;4999874;28;20680;-53
2022/03/25 00:12:57;;;;;;;42.00;30.97;;;;;;;;;;5006261;28;20193;-52
2022/03/25 00:15:23;;;;;;;40.10;31.00;;;;;;;;;;5004428;28;20416;-52
2022/03/25 00:17:49;;;;;;;43.50;30.67;;;;;;;;;;5007642;28;20219;-52
2022/03/25 00:20:15;;;;;;;39.60;31.07;;;;;;;;;;5002220;28;20197;-53
2022/03/25 00:22:41;;;;;;;40.00;31.13;;;;;;;;;;5006257;28;20599;-53
2022/03/25 00:25:08;;;;;;;41.57;32.27;;;;;;;;;;4999970;28;20579;-53
2022/03/25 00:27:34;;;;;;;43.63;31.53;;;;;;;;;;5008216;28;20208;-53
2022/03/25 00:30:00;;;;;;;41.50;31.53;;;;;;;;;;4996098;28;20189;-53
2022/03/25 00:32:26;;;;;;;43.43;31.07;;;;;;;;;;4997976;28;20227;-52
2022/03/25 00:34:52;;;;;;;39.97;30.50;;;;;;;;;;4992350;28;20648;-53
2022/03/25 00:37:18;;;;;;;39.07;29.30;;;;;;;;;;5004278;28;20192;-53
2022/03/25 00:39:44;;;;;;;45.50;31.67;;;;;;;;;;5009680;28;20714;-53
2022/03/25 00:42:12;;;;;;;40.90;30.10;;;;;;;;;;5008789;28;20976;-52
2022/03/25 00:44:38;;;;;;;40.47;29.13;;;;;;;;;;5004649;28;20181;-52
2022/03/25 00:47:04;;;;;;;43.23;31.33;;;;;;;;;;5001273;28;20206;-52
2022/03/25 00:49:30;;;;;;;44.53;31.90;;;;;;;;;;5008180;28;20186;-52
2022/03/25 00:51:57;;;;;;;48.50;31.23;;;;;;;;;;5006585;28;20280;-53
2022/03/25 00:54:23;;;;;;;46.03;30.33;;;;;;;;;;5005164;28;20252;-52
2022/03/25 00:56:49;;;;;;;41.40;29.90;;;;;;;;;;4992485;28;20196;-53
2022/03/25 00:59:15;;;;;;;42.10;29.80;;;;;;;;;;5001130;28;20193;-53
2022/03/25 01:01:41;;;;;;;39.20;30.80;;;;;;;;;;4996808;28;20641;-53
2022/03/25 01:04:08;;;;;;;42.43;31.13;;;;;;;;;;5003994;28;20204;-53
2022/03/25 01:06:34;;;;;;;41.03;31.23;;;;;;;;;;5009883;28;20725;-52
2022/03/25 01:09:00;;;;;;;43.03;31.23;;;;;;;;;;4999642;28;20196;-53
2022/03/25 01:11:27;;;;;;;48.00;29.93;;;;;;;;;;5004834;28;20203;-53
2022/03/25 01:13:53;;;;;;;40.53;30.57;;;;;;;;;;5008077;28;20213;-53
2022/03/25 01:16:19;;;;;;;41.80;30.60;;;;;;;;;;5001847;28;20726;-53
2022/03/25 01:18:44;;;;;;;43.10;31.17;;;;;;;;;;5007918;28;20221;-53
2022/03/25 01:21:10;;;;;;;40.23;30.13;;;;;;;;;;5003692;28;20525;-52
2022/03/25 01:23:37;;;;;;;44.33;30.40;;;;;;;;;;5009242;28;20643;-53
2022/03/25 01:26:03;;;;;;;40.23;30.10;;;;;;;;;;5005599;28;20240;-53
2022/03/25 01:28:34;;;;;;;40.10;30.37;;;;;;;;;;5002218;28;20228;-53
2022/03/25 01:31:00;;;;;;;41.67;29.57;;;;;;;;;;5000490;28;20188;-53
2022/03/25 01:33:27;;;;;;;43.13;30.17;;;;;;;;;;4997625;28;20535;-53
2022/03/25 01:35:53;;;;;;;39.60;28.50;;;;;;;;;;5002214;28;20190;-53
2022/03/25 01:38:19;;;;;;;41.87;28.73;;;;;;;;;;4994549;28;20728;-53
2022/03/25 01:40:45;;;;;;;37.73;28.90;;;;;;;;;;5003743;28;20274;-53
2022/03/25 01:43:12;;;;;;;40.50;29.50;;;;;;;;;;5007121;28;20551;-53
2022/03/25 01:45:38;;;;;;;39.37;28.67;;;;;;;;;;5004421;28;20193;-53
2022/03/25 01:48:09;;;;;;;39.23;28.47;;;;;;;;;;5004146;28;20368;-52
2022/03/25 01:50:35;;;;;;;41.30;29.40;;;;;;;;;;5006431;28;20296;-53
2022/03/25 01:53:01;;;;;;;41.87;29.97;;;;;;;;;;5009481;28;20703;-53
2022/03/25 01:55:27;;;;;;;42.47;29.10;;;;;;;;;;5006531;28;20219;-53
2022/03/25 01:57:55;;;;;;;40.00;28.60;;;;;;;;;;4999517;28;20205;-53
2022/03/25 02:02:47;;;;;;;38.57;28.97;;;;;;;;;;5957831;23;20257;-79
2022/03/25 02:05:13;;;;;;;40.23;27.63;;;;;;;;;;4939352;28;20222;-80
2022/03/25 02:07:40;;;;;;;38.40;27.87;;;;;;;;;;4949542;28;20215;-77
2022/03/25 02:10:06;;;;;;;38.00;28.20;;;;;;;;;;4968462;28;20201;-79
2022/03/25 02:12:34;;;;;;;41.33;28.03;;;;;;;;;;4965301;28;20186;-79
2022/03/25 02:15:00;;;;;;;37.83;26.70;;;;;;;;;;4970320;28;20205;-78
2022/03/25 02:17:26;;;;;;;40.07;26.97;;;;;;;;;;4950291;28;20203;-77
2022/03/25 02:19:52;;;;;;;34.87;27.27;;;;;;;;;;4954888;28;20216;-82
2022/03/25 02:22:18;;;;;;;36.10;27.20;;;;;;;;;;4969876;28;20202;-80
2022/03/25 02:24:44;;;;;;;40.03;27.87;;;;;;;;;;4956097;28;20639;-79
2022/03/25 02:27:10;;;;;;;36.67;26.77;;;;;;;;;;4970557;28;20217;-78
2022/03/25 02:29:37;;;;;;;40.93;27.83;;;;;;;;;;4949120;28;20209;-79
2022/03/25 02:32:03;;;;;;;38.83;28.47;;;;;;;;;;4971269;28;20347;-79
2022/03/25 02:34:29;;;;;;;37.63;27.60;;;;;;;;;;4963512;28;20224;-81
2022/03/25 02:36:55;;;;;;;39.43;27.53;;;;;;;;;;4948619;28;20206;-80
2022/03/25 02:39:22;;;;;;;40.57;27.13;;;;;;;;;;4965587;28;20291;-79
2022/03/25 02:41:48;;;;;;;41.30;27.10;;;;;;;;;;4969277;28;20201;-80
2022/03/25 02:44:14;;;;;;;37.97;27.77;;;;;;;;;;4949153;28;20204;-79
2022/03/25 02:46:40;;;;;;;42.50;29.53;;;;;;;;;;4948125;28;20194;-79
2022/03/25 02:49:06;;;;;;;41.67;28.83;;;;;;;;;;4950066;28;20194;-80
2022/03/25 02:51:32;;;;;;;42.13;27.67;;;;;;;;;;4964057;28;20332;-81
2022/03/25 02:53:58;;;;;;;36.67;26.17;;;;;;;;;;4953910;28;20737;-79
2022/03/25 02:56:24;;;;;;;39.07;27.90;;;;;;;;;;4972099;28;20203;-81
2022/03/25 02:58:51;;;;;;;40.70;27.20;;;;;;;;;;4972973;28;20205;-80
2022/03/25 03:01:18;;;;;;;37.80;26.90;;;;;;;;;;4951093;28;21454;-79
2022/03/25 03:03:45;;;;;;;38.33;27.20;;;;;;;;;;4954441;28;20248;-81
2022/03/25 03:06:11;;;;;;;41.27;29.00;;;;;;;;;;4968426;28;20281;-79
2022/03/25 03:08:37;;;;;;;41.40;28.53;;;;;;;;;;4947413;28;20268;-79
2022/03/25 03:11:03;;;;;;;41.13;29.00;;;;;;;;;;4970840;28;20284;-80
2022/03/25 03:13:29;;;;;;;37.00;27.93;;;;;;;;;;4956737;28;20200;-79
2022/03/25 03:15:55;;;;;;;39.13;28.50;;;;;;;;;;4965464;28;20202;-78
2022/03/25 03:18:21;;;;;;;40.50;27.83;;;;;;;;;;4966226;28;20201;-81
2022/03/25 03:20:47;;;;;;;34.80;27.07;;;;;;;;;;4969629;28;20194;-78
2022/03/25 03:23:13;;;;;;;36.70;27.40;;;;;;;;;;4957220;28;20680;-79
2022/03/25 03:25:39;;;;;;;40.53;28.70;;;;;;;;;;4967347;28;20722;-80
2022/03/25 03:28:05;;;;;;;40.47;28.23;;;;;;;;;;4970867;28;20207;-81
2022/03/25 03:30:31;;;;;;;39.53;27.87;;;;;;;;;;4967357;28;20308;-80
2022/03/25 03:32:57;;;;;;;40.23;27.57;;;;;;;;;;4956343;28;20194;-80
2022/03/25 03:35:27;;;;;;;38.27;27.47;;;;;;;;;;4959794;28;20655;-79
2022/03/25 03:37:53;;;;;;;37.37;27.93;;;;;;;;;;4957552;28;20219;-76
2022/03/25 03:40:19;;;;;;;39.37;27.53;;;;;;;;;;4960539;28;20279;-80
2022/03/25 03:42:45;;;;;;;39.13;28.43;;;;;;;;;;4959602;28;20274;-81
2022/03/25 03:45:11;;;;;;;37.57;27.73;;;;;;;;;;4971124;28;20216;-79
2022/03/25 03:47:37;;;;;;;35.93;27.60;;;;;;;;;;4956616;28;21503;-80
2022/03/25 03:50:08;;;;;;;40.40;27.97;;;;;;;;;;4959496;28;20868;-80
2022/03/25 03:52:35;;;;;;;40.40;28.23;;;;;;;;;;4960921;28;20629;-79
2022/03/25 03:55:01;;;;;;;34.40;26.70;;;;;;;;;;4958554;28;20256;-79
2022/03/25 03:57:27;;;;;;;37.17;27.10;;;;;;;;;;4960101;28;20197;-79
2022/03/25 03:59:53;;;;;;;40.23;27.90;;;;;;;;;;4961358;28;20277;-81
2022/03/25 04:02:19;;;;;;;39.97;28.17;;;;;;;;;;4963894;28;20195;-82
2022/03/25 04:04:45;;;;;;;40.10;28.37;;;;;;;;;;4968043;28;20906;-80
2022/03/25 04:07:11;;;;;;;40.23;29.17;;;;;;;;;;4956809;28;20757;-80
2022/03/25 04:09:37;;;;;;;34.43;27.33;;;;;;;;;;4970335;28;20191;-81
2022/03/25 04:12:03;;;;;;;40.40;27.87;;;;;;;;;;4975506;28;20247;-77
2022/03/25 04:14:29;;;;;;;37.07;27.53;;;;;;;;;;4956605;28;20286;-79
2022/03/25 04:16:55;;;;;;;43.07;29.27;;;;;;;;;;4957731;28;20307;-80
2022/03/25 04:19:21;;;;;;;38.50;27.77;;;;;;;;;;4973799;28;20276;-78
2022/03/25 04:21:47;;;;;;;36.77;27.67;;;;;;;;;;4966910;28;20233;-81
2022/03/25 04:24:13;;;;;;;39.10;28.27;;;;;;;;;;4972247;28;20200;-81
2022/03/25 04:26:39;;;;;;;41.43;27.80;;;;;;;;;;4972022;28;21440;-80
2022/03/25 04:29:06;;;;;;;40.10;28.93;;;;;;;;;;4973678;28;20563;-80
2022/03/25 04:31:32;;;;;;;40.30;27.90;;;;;;;;;;4967061;28;20192;-79
2022/03/25 04:33:58;;;;;;;40.70;27.93;;;;;;;;;;4945509;28;20265;-79
2022/03/25 04:36:24;;;;;;;41.03;29.97;;;;;;;;;;4963442;28;20199;-79
2022/03/25 04:38:50;;;;;;;42.63;28.80;;;;;;;;;;4958815;28;20237;-79
2022/03/25 04:41:16;;;;;;;39.73;28.20;;;;;;;;;;4947706;28;20206;-80
2022/03/25 04:43:42;;;;;;;41.07;27.87;;;;;;;;;;4972085;28;20307;-79
2022/03/25 04:46:08;;;;;;;40.40;27.37;;;;;;;;;;4991886;28;21103;-78
2022/03/25 04:48:34;;;;;;;40.70;29.43;;;;;;;;;;4965621;28;20245;-78
2022/03/25 04:51:00;;;;;;;43.57;28.70;;;;;;;;;;4960108;28;20629;-78
2022/03/25 04:53:26;;;;;;;42.20;28.27;;;;;;;;;;4965509;28;20193;-82
2022/03/25 04:55:52;;;;;;;38.80;28.37;;;;;;;;;;4970380;28;20187;-80
2022/03/25 04:58:18;;;;;;;37.90;28.60;;;;;;;;;;4986935;28;20203;-79
2022/03/25 05:00:44;;;;;;;43.77;28.63;;;;;;;;;;4971533;28;20299;-80
2022/03/25 05:03:11;;;;;;;39.00;28.73;;;;;;;;;;4971072;28;20241;-80
2022/03/25 05:05:37;;;;;;;42.93;28.57;;;;;;;;;;4969023;28;20190;-80
2022/03/25 05:08:03;;;;;;;49.20;30.37;;;;;;;;;;4967742;28;20837;-78
2022/03/25 05:10:29;;;;;;;37.57;28.87;;;;;;;;;;4970729;28;20194;-82
2022/03/25 05:12:55;;;;;;;40.60;29.00;;;;;;;;;;4971233;28;20199;-80
2022/03/25 05:15:21;;;;;;;44.27;30.93;;;;;;;;;;4962256;28;20186;-80
2022/03/25 05:17:51;;;;;;;40.83;29.67;;;;;;;;;;4963138;28;20202;-77
2022/03/25 05:20:18;;;;;;;43.67;30.50;;;;;;;;;;4968237;28;20664;-77
2022/03/25 05:22:44;;;;;;;44.27;30.63;;;;;;;;;;4959412;28;21698;-79
2022/03/25 05:25:10;;;;;;;40.27;29.00;;;;;;;;;;4944514;28;20241;-80
2022/03/25 05:27:45;;;;;;;45.57;30.87;;;;;;;;;;4951692;28;20744;-79
2022/03/25 05:30:12;;;;;;;47.20;31.57;;;;;;;;;;4940671;28;20201;-79
2022/03/25 05:32:39;;;;;;;42.53;30.70;;;;;;;;;;4939969;28;20197;-78
2022/03/25 05:35:06;;;;;;;43.47;31.23;;;;;;;;;;4941465;28;20195;-80
2022/03/25 05:37:32;;;;;;;46.30;31.10;;;;;;;;;;4969336;28;20683;-78
2022/03/25 05:39:59;;;;;;;46.07;31.40;;;;;;;;;;4969971;28;20488;-80
2022/03/25 05:42:25;;;;;;;44.77;31.30;;;;;;;;;;4963843;28;20200;-79
2022/03/25 05:44:51;;;;;;;46.57;30.97;;;;;;;;;;4937888;28;20265;-81
2022/03/25 05:47:17;;;;;;;48.77;31.23;;;;;;;;;;4960641;28;20304;-79
2022/03/25 05:49:43;;;;;;;42.20;30.33;;;;;;;;;;4969359;28;20303;-79
2022/03/25 05:52:09;;;;;;;43.23;29.43;;;;;;;;;;4968608;28;20191;-79
2022/03/25 05:54:35;;;;;;;45.93;31.73;;;;;;;;;;4954059;28;20203;-78
2022/03/25 05:57:01;;;;;;;39.43;26.77;;;;;;;;;;4970297;28;20225;-77
2022/03/25 05:59:27;;;;;;;43.87;25.83;;;;;;;;;;4977518;28;20202;-77
2022/03/25 06:01:53;;;;;;;46.67;27.90;;;;;;;;;;4960891;28;20205;-75
2022/03/25 06:04:20;;;;;;;38.23;27.23;;;;;;;;;;4961333;28;21129;-78
2022/03/25 06:06:46;;;;;;;41.43;28.63;;;;;;;;;;4959632;28;21891;-78
2022/03/25 06:09:12;;;;;;;44.17;28.63;;;;;;;;;;4973155;28;20190;-79
2022/03/25 06:11:38;;;;;;;43.30;29.63;;;;;;;;;;4966412;28;20194;-78
2022/03/25 06:14:04;;;;;;;48.70;32.40;;;;;;;;;;4969036;28;20288;-80
2022/03/25 06:16:30;;;;;;;48.53;31.70;;;;;;;;;;4960915;28;20198;-81
2022/03/25 06:18:57;;;;;;;57.53;33.20;;;;;;;;;;4964169;28;20203;-79
2022/03/25 06:21:23;;;;;;;50.77;32.87;;;;;;;;;;4954158;28;20307;-78
2022/03/25 06:23:49;;;;;;;46.07;31.57;;;;;;;;;;4951513;28;20237;-77
2022/03/25 06:26:15;;;;;;;48.17;32.03;;;;;;;;;;4961986;28;20197;-79
2022/03/25 06:28:41;;;;;;;45.40;29.67;;;;;;;;;;4952704;28;20268;-78
2022/03/25 06:31:08;;;;;;;45.30;32.07;;;;;;;;;;4984521;28;20342;-79
2022/03/25 06:33:34;;;;;;;49.53;31.63;;;;;;;;;;4960325;28;20319;-80
2022/03/25 06:36:01;;;;;;;45.73;30.70;;;;;;;;;;4972108;28;20189;-79
2022/03/25 06:38:27;;;;;;;45.17;31.23;;;;;;;;;;4954730;28;20300;-82
2022/03/25 06:40:53;;;;;;;44.33;32.10;;;;;;;;;;4960909;28;20296;-80
2022/03/25 06:43:19;;;;;;;43.70;31.87;;;;;;;;;;4973085;28;20195;-84
2022/03/25 06:45:45;;;;;;;47.90;31.37;;;;;;;;;;4954673;28;20212;-80
2022/03/25 06:48:11;;;;;;;50.60;32.43;;;;;;;;;;4956437;28;20596;-81
2022/03/25 06:50:37;;;;;;;50.97;32.07;;;;;;;;;;4956049;28;20194;-78
2022/03/25 06:53:04;;;;;;;47.10;31.63;;;;;;;;;;4964219;28;20202;-80
2022/03/25 06:55:30;;;;;;;43.17;31.80;;;;;;;;;;4950071;28;26541;-80
2022/03/25 06:57:56;;;;;;;47.20;32.63;;;;;;;;;;4951156;28;20194;-80
2022/03/25 07:00:24;;;;;;;44.37;31.30;;;;;;;;;;4971219;28;20232;-80
2022/03/25 07:02:50;;;;;;;48.07;33.63;;;;;;;;;;4976183;28;20895;-78
2022/03/25 07:05:16;;;;;;;44.67;32.23;;;;;;;;;;4952250;28;20199;-78
2022/03/25 07:07:42;;;;;;;48.77;32.67;;;;;;;;;;4955082;28;20218;-79
2022/03/25 07:10:09;;;;;;;47.20;32.40;;;;;;;;;;4968708;28;20591;-80
2022/03/25 07:12:36;;;;;;;44.97;31.87;;;;;;;;;;4968914;28;21076;-79
2022/03/25 07:15:02;;;;;;;46.30;32.73;;;;;;;;;;4958967;28;20719;-80
2022/03/25 07:17:30;;;;;;;49.77;31.77;;;;;;;;;;4957701;28;20183;-79
2022/03/25 07:19:56;;;;;;;47.07;32.40;;;;;;;;;;4970930;28;20206;-80
2022/03/25 07:22:22;;;;;;;51.80;33.43;;;;;;;;;;4953002;28;20217;-80
2022/03/25 07:24:48;;;;;;;44.73;32.80;;;;;;;;;;4959098;28;20194;-81
2022/03/25 07:27:14;;;;;;;45.47;33.63;;;;;;;;;;4971172;28;20225;-80
2022/03/25 07:29:40;;;;;;;50.27;34.30;;;;;;;;;;4970913;28;20279;-80
2022/03/25 07:32:06;;;;;;;51.20;34.93;;;;;;;;;;4947071;28;20268;-80
2022/03/25 07:34:34;;;;;;;47.03;34.30;;;;;;;;;;4966423;28;20659;-80
2022/03/25 07:37:06;;;;;;;48.23;34.70;;;;;;;;;;4970491;28;20668;-80
2022/03/25 07:39:32;;;;;;;47.47;35.17;;;;;;;;;;4960142;28;20209;-80
2022/03/25 07:41:58;;;;;;;51.43;35.13;;;;;;;;;;4967467;28;20186;-80
2022/03/25 07:44:24;;;;;;;50.43;36.10;;;;;;;;;;4961277;28;20226;-79
2022/03/25 07:46:50;;;;;;;54.33;36.43;;;;;;;;;;4962534;28;20591;-80
2022/03/25 07:49:16;;;;;;;48.13;33.93;;;;;;;;;;4968410;28;20659;-80
2022/03/25 07:51:42;;;;;;;55.53;36.00;;;;;;;;;;4953722;28;20318;-79
2022/03/25 07:54:08;;;;;;;50.37;36.13;;;;;;;;;;4974087;28;20206;-80
2022/03/25 07:56:43;;;;;;;50.10;36.17;;;;;;;;;;4956125;28;20202;-80
2022/03/25 07:59:11;;;;;;;51.37;36.67;;;;;;;;;;4970858;28;20204;-80
2022/03/25 08:01:37;;;;;;;49.47;35.60;;;;;;;;;;4962131;28;20194;-80
2022/03/25 08:04:03;;;;;;;50.67;36.43;;;;;;;;;;4960634;28;20255;-79
2022/03/25 08:06:29;;;;;;;50.63;36.83;;;;;;;;;;4961743;28;20191;-81
2022/03/25 08:08:54;;;;;;;51.07;36.37;;;;;;;;;;4968181;28;21002;-80
2022/03/25 08:11:20;;;;;;;51.27;36.13;;;;;;;;;;4968581;28;20198;-80
2022/03/25 08:13:49;;;;;;;47.37;35.10;;;;;;;;;;4953534;28;20250;-80
2022/03/25 08:16:16;;;;;;;48.97;36.53;;;;;;;;;;4971293;28;20201;-80
2022/03/25 08:18:43;;;;;;;49.17;35.10;;;;;;;;;;4966304;28;20202;-80
2022/03/25 08:21:10;;;;;;;51.37;37.73;;;;;;;;;;4963039;28;20187;-81
2022/03/25 08:29:05;;;;;;;44.33;35.83;;;;;;;;;;4968419;28;20226;-82
2022/03/25 08:31:34;;;;;;;44.70;35.73;;;;;;;;;;4972880;28;20190;-82
2022/03/25 08:34:00;;;;;;;46.57;36.83;;;;;;;;;;4969956;28;21543;-82
2022/03/25 08:36:26;;;;;;;46.43;36.03;;;;;;;;;;4954466;28;20255;-82
2022/03/25 08:38:52;;;;;;;48.23;36.17;;;;;;;;;;4976358;28;20681;-81
2022/03/25 08:41:18;;;;;;;48.83;35.90;;;;;;;;;;4958343;28;20746;-82
2022/03/25 08:43:47;;;;;;;46.83;35.70;;;;;;;;;;4971219;28;20217;-82
2022/03/25 08:46:13;;;;;;;45.77;35.77;;;;;;;;;;4971141;28;20313;-82
2022/03/25 08:48:39;;;;;;;43.27;35.03;;;;;;;;;;4966841;28;20210;-81
2022/03/25 08:51:05;;;;;;;45.87;35.40;;;;;;;;;;4969862;28;20648;-82
2022/03/25 08:53:31;;;;;;;42.47;35.37;;;;;;;;;;4968281;28;20195;-82
2022/03/25 08:55:57;;;;;;;44.47;36.07;;;;;;;;;;4984276;28;20199;-82
2022/03/25 08:58:23;;;;;;;43.90;35.40;;;;;;;;;;4972272;28;20279;-82
2022/03/25 09:00:49;;;;;;;47.90;35.17;;;;;;;;;;4949017;28;20206;-82
2022/03/25 09:03:15;;;;;;;44.97;36.60;;;;;;;;;;4959061;28;21656;-81
2022/03/25 09:05:41;;;;;;;47.40;35.03;;;;;;;;;;4940125;28;20209;-81
2022/03/25 09:08:07;;;;;;;43.53;35.53;;;;;;;;;;4948359;28;20218;-83
2022/03/25 09:10:33;;;;;;;42.80;34.33;;;;;;;;;;4965583;28;20285;-82
2022/03/25 09:12:59;;;;;;;40.43;34.77;;;;;;;;;;4967423;28;20202;-82
2022/03/25 09:15:25;;;;;;;40.97;33.03;;;;;;;;;;4970166;28;20539;-82
2022/03/25 09:17:51;;;;;;;41.73;34.67;;;;;;;;;;4965522;28;20207;-82
2022/03/25 09:20:17;;;;;;;40.43;34.60;;;;;;;;;;4967411;28;20202;-82
2022/03/25 09:22:44;;;;;;;43.22;34.47;;;;;;;;;;4958318;28;20277;-82
2022/03/25 09:25:11;;;;;;;39.45;34.10;;;;;;;;;;4959023;28;20264;-81
2022/03/25 09:27:37;;;;;;;43.63;35.25;;;;;;;;;;4974965;28;20253;-83
2022/03/25 09:30:06;;;;;;;45.95;34.42;;;;;;;;;;4969090;28;20205;-82
2022/03/25 09:32:32;;;;;;;42.42;34.42;;;;;;;;;;4966872;28;20312;-82
2022/03/25 09:35:10;;;;;;;41.70;33.22;;;;;;;;;;4951165;28;21020;-81
2022/03/25 09:37:40;;;;;;;40.80;33.50;;;;;;;;;;4972003;28;20187;-81
2022/03/25 09:40:07;;;;;;;37.58;33.42;;;;;;;;;;4976415;28;20194;-81
2022/03/25 09:42:33;;;;;;;38.58;33.30;;;;;;;;;;4973341;28;20201;-81
2022/03/25 09:45:00;;;;;;;40.35;31.80;;;;;;;;;;4974465;28;20252;-81
2022/03/25 09:47:26;;;;;;;38.80;32.40;;;;;;;;;;4972322;28;20226;-82
2022/03/25 09:49:52;;;;;;;38.83;31.60;;;;;;;;;;4974354;28;20186;-81
2022/03/25 09:52:18;;;;;;;38.75;31.90;;;;;;;;;;4975123;28;20244;-81
2022/03/25 09:54:44;;;;;;;42.38;31.92;;;;;;;;;;4974685;28;20193;-81
2022/03/25 09:57:10;;;;;;;42.55;29.85;;;;;;;;;;4959173;28;20190;-81
2022/03/25 09:59:36;;;;;;;39.08;29.60;;;;;;;;;;4988957;28;20209;-81
2022/03/25 10:02:02;;;;;;;33.22;28.02;;;;;;;;;;4973354;28;20195;-82
2022/03/25 10:04:40;;;;;;;34.53;28.48;;;;;;;;;;4972836;28;20253;-83
2022/03/25 10:07:16;;;;;;;34.42;28.27;;;;;;;;;;4975974;28;20218;-82
2022/03/25 10:09:42;;;;;;;30.00;26.52;;;;;;;;;;4972566;28;20186;-82
2022/03/25 10:12:19;;;;;;;30.60;26.17;;;;;;;;;;4973252;28;20186;-82
2022/03/25 10:14:45;;;;;;;30.08;25.92;;;;;;;;;;4974757;28;20186;-82
2022/03/25 10:17:11;;;;;;;31.70;26.55;;;;;;;;;;4958126;28;20202;-85
2022/03/25 10:19:37;;;;;;;32.92;27.13;;;;;;;;;;4944491;28;20190;-83
2022/03/25 10:22:06;;;;;;;31.10;26.65;;;;;;;;;;4964562;28;20966;-85
2022/03/25 10:24:44;;;;;;;28.05;23.92;;;;;;;;;;4964081;28;20186;-83
2022/03/25 10:27:09;;;;;;;20.85;16.85;;;;;;;;;;4977209;28;20217;-78
2022/03/25 10:29:35;;;;;;;27.08;18.25;;;;;;;;;;4959403;28;20565;-80
2022/03/25 10:32:11;;;;;;;22.15;18.63;;;;;;;;;;4961212;28;20627;-79
2022/03/25 10:34:38;;;;;;;18.80;15.35;;;;;;;;;;4959094;28;20194;-79
2022/03/25 10:37:05;;;;;;;19.33;15.02;;;;;;;;;;4968955;28;20186;-77
2022/03/25 10:39:32;;;;;;;22.73;15.35;;;;;;;;;;4953480;28;20772;-79
2022/03/25 10:41:58;;;;;;;19.60;14.38;;;;;;;;;;4970082;28;20217;-79
2022/03/25 10:44:34;;;;;;;17.92;13.45;;;;;;;;;;4955222;28;20198;-79
2022/03/25 10:47:00;;;;;;;16.92;13.60;;;;;;;;;;4973675;28;20194;-79
2022/03/25 10:49:26;;;;;;;15.13;12.88;;;;;;;;;;4951678;28;20797;-80
2022/03/25 10:51:52;;;;;;;15.32;11.73;;;;;;;;;;4955795;28;20195;-80
2022/03/25 10:54:25;;;;;;;15.63;8.38;;;;;;;;;;4963187;28;20353;-81
2022/03/25 10:57:01;;;;;;;16.02;8.88;;;;;;;;;;4962163;28;20285;-82
2022/03/25 10:59:28;;;;;;;20.90;9.68;;;;;;;;;;4963728;28;20233;-79
2022/03/25 11:01:55;;;;;;;21.85;11.40;;;;;;;;;;4963677;28;20202;-82
2022/03/25 11:04:21;;;;;;;19.45;12.70;;;;;;;;;;4968707;28;20262;-81
2022/03/25 11:06:47;;;;;;;16.98;8.75;;;;;;;;;;4975091;28;20902;-81
2022/03/25 11:09:13;;;;;;;13.77;7.15;;;;;;;;;;4966701;28;20217;-80
2022/03/25 11:11:41;;;;;;;17.40;9.07;;;;;;;;;;4962440;28;20175;-81
2022/03/25 11:14:07;;;;;;;19.67;9.20;;;;;;;;;;4952567;28;20210;-81
2022/03/25 11:16:33;;;;;;;17.15;8.32;;;;;;;;;;4968246;28;21387;-81
2022/03/25 11:18:59;;;;;;;16.42;8.10;;;;;;;;;;4966541;28;20202;-80
2022/03/25 11:21:26;;;;;;;21.17;12.50;;;;;;;;;;4949494;28;20588;-80
2022/03/25 11:23:52;;;;;;;21.23;12.23;;;;;;;;;;4967733;28;20628;-80
2022/03/25 11:26:20;;;;;;;17.55;11.20;;;;;;;;;;4973217;28;20213;-80
2022/03/25 11:28:46;;;;;;;23.50;13.10;;;;;;;;;;4974514;28;20257;-80
2022/03/25 11:31:12;;;;;;;18.15;12.75;;;;;;;;;;4949864;28;20730;-82
2022/03/25 11:33:57;;;;;;;17.00;11.07;;;;;;;;;;4969450;28;20210;-81
2022/03/25 11:36:24;;;;;;;17.20;11.15;;;;;;;;;;4972105;28;20664;-79
2022/03/25 11:38:57;;;;;;;20.13;10.63;;;;;;;;;;4962854;28;21008;-80
2022/03/25 11:41:24;;;;;;;20.83;9.88;;;;;;;;;;4957148;28;20202;-81
2022/03/25 11:44:09;;;;;;;20.25;11.95;;;;;;;;;;4957003;28;20207;-81
2022/03/25 11:46:35;;;;;;;18.92;13.00;;;;;;;;;;4971547;28;20198;-79
2022/03/25 11:49:20;;;;;;;16.80;13.23;;;;;;;;;;4943193;28;20218;-81
2022/03/25 11:51:46;;;;;;;22.10;11.75;;;;;;;;;;4946967;28;20190;-81
2022/03/25 11:54:31;;;;;;;18.90;11.13;;;;;;;;;;4963106;28;20222;-81
2022/03/25 11:56:57;;;;;;;17.55;12.48;;;;;;;;;;4966021;28;20597;-81
2022/03/25 11:59:23;;;;;;;20.65;13.65;;;;;;;;;;4963762;28;20186;-81
2022/03/25 12:01:49;;;;;;;21.67;14.05;;;;;;;;;;4968514;28;20198;-81
2022/03/25 12:04:33;;;;;;;22.13;14.13;;;;;;;;;;4971171;28;20336;-79
2022/03/25 12:07:03;;;;;;;19.40;12.35;;;;;;;;;;4970691;28;20178;-80
2022/03/25 12:09:35;;;;;;;21.80;12.70;;;;;;;;;;4967427;28;20190;-81
2022/03/25 12:12:02;;;;;;;22.33;12.90;;;;;;;;;;4962660;28;20210;-80
2022/03/25 12:14:31;;;;;;;24.77;13.50;;;;;;;;;;4964054;28;20359;-81
2022/03/25 12:16:58;;;;;;;20.55;12.95;;;;;;;;;;4963434;28;20186;-81
2022/03/25 12:19:27;;;;;;;17.67;14.60;;;;;;;;;;4965767;28;20707;-81
2022/03/25 12:21:56;;;;;;;20.38;15.13;;;;;;;;;;4956954;28;20800;-79
2022/03/25 12:24:22;;;;;;;22.63;13.52;;;;;;;;;;4961055;28;20186;-78
2022/03/25 12:26:55;;;;;;;22.88;15.32;;;;;;;;;;4951324;28;20201;-77
2022/03/25 12:29:21;;;;;;;22.75;15.18;;;;;;;;;;4951642;28;20219;-80
2022/03/25 12:31:52;;;;;;;20.30;15.63;;;;;;;;;;4951478;28;20202;-79
2022/03/25 12:34:18;;;;;;;20.63;14.82;;;;;;;;;;4957245;28;20190;-81
2022/03/25 12:36:45;;;;;;;22.08;15.27;;;;;;;;;;4963910;28;21244;-78
2022/03/25 12:39:14;;;;;;;18.60;15.27;;;;;;;;;;4962346;28;20315;-78
2022/03/25 12:41:40;;;;;;;17.85;13.68;;;;;;;;;;4963862;28;20425;-78
2022/03/25 12:44:06;;;;;;;20.65;14.13;;;;;;;;;;4967873;28;20195;-78
2022/03/25 12:46:32;;;;;;;23.17;14.10;;;;;;;;;;4964008;28;20562;-78
2022/03/25 12:49:07;;;;;;;26.98;16.55;;;;;;;;;;4964810;28;20308;-76
2022/03/25 12:51:33;;;;;;;29.92;18.35;;;;;;;;;;4960747;28;20324;-78
2022/03/25 12:54:00;;;;;;;19.90;15.27;;;;;;;;;;4950134;28;20571;-78
2022/03/25 12:56:26;;;;;;;19.08;14.52;;;;;;;;;;4955298;28;20186;-78
2022/03/25 12:58:53;;;;;;;21.73;14.70;;;;;;;;;;4959604;28;20690;-78
2022/03/25 13:01:19;;;;;;;21.27;15.32;;;;;;;;;;4956899;28;20373;-78
2022/03/25 13:03:47;;;;;;;30.23;14.63;;;;;;;;;;4960330;28;20238;-78
2022/03/25 13:06:13;;;;;;;24.15;10.55;;;;;;;;;;4956676;28;20196;-78
2022/03/25 13:08:39;;;;;;;17.83;11.52;;;;;;;;;;4963286;28;20215;-80
2022/03/25 13:11:05;;;;;;;23.20;12.02;;;;;;;;;;4968191;28;20182;-78
2022/03/25 13:13:31;;;;;;;18.38;11.73;;;;;;;;;;4968421;28;20218;-78
2022/03/25 13:16:01;;;;;;;17.25;12.13;;;;;;;;;;4968826;28;20345;-78
2022/03/25 13:18:31;;;;;;;15.13;11.90;;;;;;;;;;4973129;28;20194;-78
2022/03/25 13:20:58;;;;;;;20.98;13.15;;;;;;;;;;4971887;28;20195;-78
2022/03/25 13:23:25;;;;;;;19.15;13.73;;;;;;;;;;4956206;28;20197;-79
2022/03/25 13:26:01;;;;;;;36.70;13.48;;;;;;;;;;4972213;28;20233;-78
2022/03/25 13:28:31;;;;;;;22.40;12.70;;;;;;;;;;4965985;28;20265;-78
2022/03/25 13:31:01;;;;;;;16.02;11.90;;;;;;;;;;4956530;28;20837;-78
2022/03/25 13:33:30;;;;;;;19.35;11.63;;;;;;;;;;4950563;28;20191;-79
2022/03/25 13:36:00;;;;;;;16.83;11.52;;;;;;;;;;4959364;28;20195;-78
2022/03/25 13:39:01;;;;;;;18.98;12.82;;;;;;;;;;4951738;28;20190;-77
2022/03/25 13:41:27;;;;;;;15.15;12.05;;;;;;;;;;4926330;28;20236;-77
2022/03/25 13:44:03;;;;;;;20.70;12.77;;;;;;;;;;4966513;28;21244;-77
2022/03/25 13:46:32;;;;;;;18.17;11.68;;;;;;;;;;4964747;28;21832;-77
2022/03/25 13:48:59;;;;;;;17.35;11.23;;;;;;;;;;4965128;28;20294;-77
2022/03/25 13:51:29;;;;;;;18.40;11.30;;;;;;;;;;4955761;28;20191;-78
2022/03/25 13:54:08;;;;;;;17.15;10.98;;;;;;;;;;4967896;28;20233;-78
2022/03/25 13:56:37;;;;;;;16.73;11.20;;;;;;;;;;4967760;28;20187;-79
2022/03/25 13:59:04;;;;;;;19.05;11.00;;;;;;;;;;4961267;28;20194;-77
2022/03/25 14:01:33;;;;;;;13.43;11.10;;;;;;;;;;4945192;28;20190;-77
2022/03/25 14:04:06;;;;;;;16.10;11.25;;;;;;;;;;4949671;28;20249;-78
2022/03/25 14:06:36;;;;;;;14.75;10.95;;;;;;;;;;4961475;28;20223;-77
2022/03/25 14:09:02;;;;;;;20.58;11.15;;;;;;;;;;4963952;28;20241;-78
2022/03/25 14:11:32;;;;;;;17.30;12.10;;;;;;;;;;4964367;28;20285;-76
2022/03/25 14:13:58;;;;;;;16.50;10.45;;;;;;;;;;4963397;28;20197;-79
2022/03/25 14:16:26;;;;;;;19.77;12.07;;;;;;;;;;4960936;28;20298;-78
2022/03/25 14:18:53;;;;;;;15.70;11.33;;;;;;;;;;4948946;28;20198;-79
2022/03/25 14:21:25;;;;;;;16.13;11.03;;;;;;;;;;4967628;28;20327;-79
2022/03/25 14:24:30;;;;;;;12.23;7.97;;;;;;;;;;4984029;28;20305;-79
2022/03/25 14:26:37;;;;;;;12.57;8.67;;;;;;;;;;4971123;28;20205;-78